CTK weather

Ingersoll Airport
Canton, Illinois, United States

Public forecast

Using degrees Fahrenheit for public forecast. Weather courtesy of forecast.io.

Closest aviation weather report (METAR) to Ingersoll Airport

Closest report is General Wayne A. Downing Peoria International Airport, 18.3 nm (33.9 km) ENE. Retrieved 2020/07/02 17:54 UTC (40 minutes ago):

KPIA 021754Z 09008KT 10SM BKN060 33/18 A3002 RMK AO2 SLP158 T03280178 10328 20239 58002

Closest aviation forecast (TAF) to Ingersoll Airport

Closest forecast is General Wayne A. Downing Peoria International Airport, 18.3 nm (33.9 km) ENE. Retrieved 2020/07/02 18:22 UTC (12 minutes ago):

TAF KPIA 021720Z 0218/0318 09007KT P6SM FEW035 SCT200 FM030100 07004KT P6SM FEW250